sensor_id;sensor_type;location;lat;lon;timestamp;P1;durP1;ratioP1;P2;durP2;ratioP2
70707;SDS011;58277;47.316;18.908;2023-05-10T00:00:46;7.80;;;4.40;;
70707;SDS011;58277;47.316;18.908;2023-05-10T00:03:08;7.95;;;4.88;;
70707;SDS011;58277;47.316;18.908;2023-05-10T00:05:31;8.75;;;4.88;;
70707;SDS011;58277;47.316;18.908;2023-05-10T00:07:54;8.93;;;4.72;;
70707;SDS011;58277;47.316;18.908;2023-05-10T00:10:17;10.20;;;5.07;;
70707;SDS011;58277;47.316;18.908;2023-05-10T00:12:40;8.33;;;4.97;;
70707;SDS011;58277;47.316;18.908;2023-05-10T00:15:03;8.80;;;5.13;;
70707;SDS011;58277;47.316;18.908;2023-05-10T00:17:26;9.70;;;5.10;;
70707;SDS011;58277;47.316;18.908;2023-05-10T00:19:49;8.93;;;5.07;;
70707;SDS011;58277;47.316;18.908;2023-05-10T00:22:12;8.77;;;5.32;;
70707;SDS011;58277;47.316;18.908;2023-05-10T00:24:34;9.73;;;5.17;;
70707;SDS011;58277;47.316;18.908;2023-05-10T00:26:57;8.23;;;4.93;;
70707;SDS011;58277;47.316;18.908;2023-05-10T00:29:20;9.23;;;5.30;;
70707;SDS011;58277;47.316;18.908;2023-05-10T00:31:42;10.13;;;5.30;;
70707;SDS011;58277;47.316;18.908;2023-05-10T00:34:05;8.48;;;5.05;;
70707;SDS011;58277;47.316;18.908;2023-05-10T00:36:28;10.33;;;4.97;;
70707;SDS011;58277;47.316;18.908;2023-05-10T00:38:51;8.65;;;5.25;;
70707;SDS011;58277;47.316;18.908;2023-05-10T00:41:14;10.45;;;4.88;;
70707;SDS011;58277;47.316;18.908;2023-05-10T00:43:37;9.77;;;5.07;;
70707;SDS011;58277;47.316;18.908;2023-05-10T00:46:00;10.95;;;5.72;;
70707;SDS011;58277;47.316;18.908;2023-05-10T00:48:23;11.50;;;5.00;;
70707;SDS011;58277;47.316;18.908;2023-05-10T00:50:46;10.05;;;5.30;;
70707;SDS011;58277;47.316;18.908;2023-05-10T00:53:09;12.43;;;5.18;;
70707;SDS011;58277;47.316;18.908;2023-05-10T00:55:32;10.93;;;5.15;;
70707;SDS011;58277;47.316;18.908;2023-05-10T00:57:55;9.98;;;5.05;;
70707;SDS011;58277;47.316;18.908;2023-05-10T01:00:18;11.10;;;5.37;;
70707;SDS011;58277;47.316;18.908;2023-05-10T01:02:41;8.95;;;5.20;;
70707;SDS011;58277;47.316;18.908;2023-05-10T01:05:04;8.77;;;5.10;;
70707;SDS011;58277;47.316;18.908;2023-05-10T01:07:28;9.50;;;4.97;;
70707;SDS011;58277;47.316;18.908;2023-05-10T01:09:51;8.60;;;4.82;;
70707;SDS011;58277;47.316;18.908;2023-05-10T01:12:14;10.13;;;4.80;;
70707;SDS011;58277;47.316;18.908;2023-05-10T01:14:37;8.85;;;5.13;;
70707;SDS011;58277;47.316;18.908;2023-05-10T01:17:01;8.57;;;4.88;;
70707;SDS011;58277;47.316;18.908;2023-05-10T01:19:25;8.65;;;4.90;;
70707;SDS011;58277;47.316;18.908;2023-05-10T01:30:14;7.85;;;4.68;;
70707;SDS011;58277;47.316;18.908;2023-05-10T01:32:46;11.05;;;4.85;;
70707;SDS011;58277;47.316;18.908;2023-05-10T01:35:23;9.50;;;5.10;;
70707;SDS011;58277;47.316;18.908;2023-05-10T01:37:59;8.67;;;4.70;;
70707;SDS011;58277;47.316;18.908;2023-05-10T01:40:32;9.90;;;4.93;;
70707;SDS011;58277;47.316;18.908;2023-05-10T01:43:03;9.43;;;4.97;;
70707;SDS011;58277;47.316;18.908;2023-05-10T01:45:30;9.85;;;4.90;;
70707;SDS011;58277;47.316;18.908;2023-05-10T01:48:10;8.52;;;4.80;;
70707;SDS011;58277;47.316;18.908;2023-05-10T01:50:35;9.77;;;4.87;;
70707;SDS011;58277;47.316;18.908;2023-05-10T01:53:00;8.20;;;4.97;;
70707;SDS011;58277;47.316;18.908;2023-05-10T01:55:25;10.43;;;5.00;;
70707;SDS011;58277;47.316;18.908;2023-05-10T01:57:55;9.82;;;4.95;;
70707;SDS011;58277;47.316;18.908;2023-05-10T02:00:31;8.60;;;5.03;;
70707;SDS011;58277;47.316;18.908;2023-05-10T02:02:55;9.37;;;4.77;;
70707;SDS011;58277;47.316;18.908;2023-05-10T02:05:18;9.23;;;4.97;;
70707;SDS011;58277;47.316;18.908;2023-05-10T02:07:42;9.45;;;4.85;;
70707;SDS011;58277;47.316;18.908;2023-05-10T02:10:07;9.23;;;5.18;;
70707;SDS011;58277;47.316;18.908;2023-05-10T02:12:31;9.00;;;5.00;;
70707;SDS011;58277;47.316;18.908;2023-05-10T02:15:00;9.47;;;5.00;;
70707;SDS011;58277;47.316;18.908;2023-05-10T02:17:24;9.35;;;5.10;;
70707;SDS011;58277;47.316;18.908;2023-05-10T02:19:48;9.80;;;5.28;;
70707;SDS011;58277;47.316;18.908;2023-05-10T02:22:13;9.05;;;5.13;;
70707;SDS011;58277;47.316;18.908;2023-05-10T02:24:37;8.93;;;4.85;;
70707;SDS011;58277;47.316;18.908;2023-05-10T02:27:02;8.17;;;4.87;;
70707;SDS011;58277;47.316;18.908;2023-05-10T02:29:26;9.68;;;4.93;;
70707;SDS011;58277;47.316;18.908;2023-05-10T02:31:49;10.38;;;5.43;;
70707;SDS011;58277;47.316;18.908;2023-05-10T02:34:14;8.55;;;4.75;;
70707;SDS011;58277;47.316;18.908;2023-05-10T02:36:38;10.43;;;5.03;;
70707;SDS011;58277;47.316;18.908;2023-05-10T02:39:02;9.73;;;5.20;;
70707;SDS011;58277;47.316;18.908;2023-05-10T02:41:25;10.38;;;5.10;;
70707;SDS011;58277;47.316;18.908;2023-05-10T02:43:50;10.65;;;5.18;;
70707;SDS011;58277;47.316;18.908;2023-05-10T02:46:15;8.07;;;4.70;;
70707;SDS011;58277;47.316;18.908;2023-05-10T02:48:38;9.77;;;4.80;;
70707;SDS011;58277;47.316;18.908;2023-05-10T02:51:03;8.87;;;4.57;;
70707;SDS011;58277;47.316;18.908;2023-05-10T02:53:30;8.27;;;4.68;;
70707;SDS011;58277;47.316;18.908;2023-05-10T02:55:54;9.20;;;4.80;;
70707;SDS011;58277;47.316;18.908;2023-05-10T02:58:21;9.88;;;5.35;;
70707;SDS011;58277;47.316;18.908;2023-05-10T03:00:44;9.52;;;4.97;;
70707;SDS011;58277;47.316;18.908;2023-05-10T03:03:07;9.40;;;4.63;;
70707;SDS011;58277;47.316;18.908;2023-05-10T03:05:30;10.48;;;4.63;;
70707;SDS011;58277;47.316;18.908;2023-05-10T03:07:56;8.45;;;4.78;;
70707;SDS011;58277;47.316;18.908;2023-05-10T03:10:19;9.50;;;4.80;;
70707;SDS011;58277;47.316;18.908;2023-05-10T03:15:30;8.73;;;4.80;;
70707;SDS011;58277;47.316;18.908;2023-05-10T03:18:22;9.18;;;4.80;;
70707;SDS011;58277;47.316;18.908;2023-05-10T03:20:49;8.52;;;4.93;;
70707;SDS011;58277;47.316;18.908;2023-05-10T03:25:44;8.48;;;5.05;;
70707;SDS011;58277;47.316;18.908;2023-05-10T03:28:09;10.43;;;4.93;;
70707;SDS011;58277;47.316;18.908;2023-05-10T03:30:32;8.60;;;4.78;;
70707;SDS011;58277;47.316;18.908;2023-05-10T03:32:55;8.65;;;5.00;;
70707;SDS011;58277;47.316;18.908;2023-05-10T03:35:19;9.90;;;5.25;;
70707;SDS011;58277;47.316;18.908;2023-05-10T03:37:42;8.93;;;5.25;;
70707;SDS011;58277;47.316;18.908;2023-05-10T03:40:05;8.70;;;4.93;;
70707;SDS011;58277;47.316;18.908;2023-05-10T03:42:31;9.43;;;4.97;;
70707;SDS011;58277;47.316;18.908;2023-05-10T03:44:53;8.02;;;4.97;;
70707;SDS011;58277;47.316;18.908;2023-05-10T03:47:16;9.40;;;5.25;;
70707;SDS011;58277;47.316;18.908;2023-05-10T03:49:39;7.38;;;4.75;;
70707;SDS011;58277;47.316;18.908;2023-05-10T03:52:01;7.80;;;4.80;;
70707;SDS011;58277;47.316;18.908;2023-05-10T03:54:25;8.23;;;5.03;;
70707;SDS011;58277;47.316;18.908;2023-05-10T03:56:48;9.82;;;4.95;;
70707;SDS011;58277;47.316;18.908;2023-05-10T03:59:13;10.93;;;5.38;;
70707;SDS011;58277;47.316;18.908;2023-05-10T04:01:35;6.90;;;4.63;;
70707;SDS011;58277;47.316;18.908;2023-05-10T04:03:58;9.27;;;5.07;;
70707;SDS011;58277;47.316;18.908;2023-05-10T04:06:21;8.20;;;4.93;;
70707;SDS011;58277;47.316;18.908;2023-05-10T04:08:45;9.27;;;5.22;;
70707;SDS011;58277;47.316;18.908;2023-05-10T04:11:08;7.80;;;4.72;;
70707;SDS011;58277;47.316;18.908;2023-05-10T04:13:31;7.95;;;4.93;;
70707;SDS011;58277;47.316;18.908;2023-05-10T04:15:54;8.83;;;5.23;;
70707;SDS011;58277;47.316;18.908;2023-05-10T04:18:17;7.75;;;5.10;;
70707;SDS011;58277;47.316;18.908;2023-05-10T04:20:40;8.50;;;5.00;;
70707;SDS011;58277;47.316;18.908;2023-05-10T04:23:02;8.25;;;4.90;;
70707;SDS011;58277;47.316;18.908;2023-05-10T04:25:25;7.68;;;4.93;;
70707;SDS011;58277;47.316;18.908;2023-05-10T04:27:48;7.23;;;4.33;;
70707;SDS011;58277;47.316;18.908;2023-05-10T04:30:10;7.32;;;4.88;;
70707;SDS011;58277;47.316;18.908;2023-05-10T04:32:34;8.95;;;4.75;;
70707;SDS011;58277;47.316;18.908;2023-05-10T04:34:56;8.63;;;4.72;;
70707;SDS011;58277;47.316;18.908;2023-05-10T04:37:19;9.25;;;4.88;;
70707;SDS011;58277;47.316;18.908;2023-05-10T04:39:43;9.50;;;5.17;;
70707;SDS011;58277;47.316;18.908;2023-05-10T04:42:06;10.23;;;5.47;;
70707;SDS011;58277;47.316;18.908;2023-05-10T04:44:29;9.68;;;5.53;;
70707;SDS011;58277;47.316;18.908;2023-05-10T04:46:52;8.52;;;5.20;;
70707;SDS011;58277;47.316;18.908;2023-05-10T04:49:15;8.90;;;5.40;;
70707;SDS011;58277;47.316;18.908;2023-05-10T04:51:39;8.67;;;5.40;;
70707;SDS011;58277;47.316;18.908;2023-05-10T04:54:01;10.30;;;5.95;;
70707;SDS011;58277;47.316;18.908;2023-05-10T04:56:28;9.38;;;6.15;;
70707;SDS011;58277;47.316;18.908;2023-05-10T04:58:50;8.65;;;5.70;;
70707;SDS011;58277;47.316;18.908;2023-05-10T05:01:13;10.10;;;5.57;;
70707;SDS011;58277;47.316;18.908;2023-05-10T05:03:36;9.65;;;5.82;;
70707;SDS011;58277;47.316;18.908;2023-05-10T05:05:59;9.05;;;5.60;;
70707;SDS011;58277;47.316;18.908;2023-05-10T05:08:22;12.60;;;5.75;;
70707;SDS011;58277;47.316;18.908;2023-05-10T05:10:45;10.40;;;5.90;;
70707;SDS011;58277;47.316;18.908;2023-05-10T05:13:07;11.40;;;6.00;;
70707;SDS011;58277;47.316;18.908;2023-05-10T05:15:30;9.73;;;5.70;;
70707;SDS011;58277;47.316;18.908;2023-05-10T05:17:53;8.57;;;5.95;;
70707;SDS011;58277;47.316;18.908;2023-05-10T05:20:15;8.77;;;5.60;;
70707;SDS011;58277;47.316;18.908;2023-05-10T05:22:39;9.80;;;6.13;;
70707;SDS011;58277;47.316;18.908;2023-05-10T05:25:02;9.30;;;5.75;;
70707;SDS011;58277;47.316;18.908;2023-05-10T05:27:25;10.10;;;5.80;;
70707;SDS011;58277;47.316;18.908;2023-05-10T05:29:50;9.55;;;6.18;;
70707;SDS011;58277;47.316;18.908;2023-05-10T05:32:14;8.48;;;5.65;;
70707;SDS011;58277;47.316;18.908;2023-05-10T05:34:37;10.45;;;5.40;;
70707;SDS011;58277;47.316;18.908;2023-05-10T05:36:59;9.75;;;5.90;;
70707;SDS011;58277;47.316;18.908;2023-05-10T05:39:22;8.30;;;5.33;;
70707;SDS011;58277;47.316;18.908;2023-05-10T05:41:45;7.95;;;5.38;;
70707;SDS011;58277;47.316;18.908;2023-05-10T05:44:08;9.60;;;5.25;;
70707;SDS011;58277;47.316;18.908;2023-05-10T05:46:31;8.98;;;5.38;;
70707;SDS011;58277;47.316;18.908;2023-05-10T05:48:54;10.95;;;5.07;;
70707;SDS011;58277;47.316;18.908;2023-05-10T05:51:17;9.40;;;5.20;;
70707;SDS011;58277;47.316;18.908;2023-05-10T05:53:39;7.70;;;5.10;;
70707;SDS011;58277;47.316;18.908;2023-05-10T05:56:02;9.23;;;5.25;;
70707;SDS011;58277;47.316;18.908;2023-05-10T05:58:25;9.27;;;5.20;;
70707;SDS011;58277;47.316;18.908;2023-05-10T06:00:49;8.02;;;4.85;;
70707;SDS011;58277;47.316;18.908;2023-05-10T06:03:12;12.38;;;5.60;;
70707;SDS011;58277;47.316;18.908;2023-05-10T06:05:35;9.10;;;5.28;;
70707;SDS011;58277;47.316;18.908;2023-05-10T06:07:59;7.45;;;4.93;;
70707;SDS011;58277;47.316;18.908;2023-05-10T06:10:22;8.55;;;4.80;;
70707;SDS011;58277;47.316;18.908;2023-05-10T06:12:45;9.35;;;5.38;;
70707;SDS011;58277;47.316;18.908;2023-05-10T06:15:08;7.75;;;4.60;;
70707;SDS011;58277;47.316;18.908;2023-05-10T06:17:31;7.18;;;4.85;;
70707;SDS011;58277;47.316;18.908;2023-05-10T06:19:54;7.90;;;5.10;;
70707;SDS011;58277;47.316;18.908;2023-05-10T06:22:17;10.43;;;4.95;;
70707;SDS011;58277;47.316;18.908;2023-05-10T06:24:40;7.20;;;4.63;;
70707;SDS011;58277;47.316;18.908;2023-05-10T06:27:03;7.70;;;5.15;;
70707;SDS011;58277;47.316;18.908;2023-05-10T06:29:26;11.23;;;4.60;;
70707;SDS011;58277;47.316;18.908;2023-05-10T06:31:49;7.82;;;4.80;;
70707;SDS011;58277;47.316;18.908;2023-05-10T06:34:11;8.40;;;5.20;;
70707;SDS011;58277;47.316;18.908;2023-05-10T06:36:35;7.57;;;4.70;;
70707;SDS011;58277;47.316;18.908;2023-05-10T06:38:58;7.55;;;4.50;;
70707;SDS011;58277;47.316;18.908;2023-05-10T06:41:21;11.70;;;4.80;;
70707;SDS011;58277;47.316;18.908;2023-05-10T06:43:46;6.63;;;4.40;;
70707;SDS011;58277;47.316;18.908;2023-05-10T06:46:08;7.55;;;4.78;;
70707;SDS011;58277;47.316;18.908;2023-05-10T06:48:32;6.00;;;4.32;;
70707;SDS011;58277;47.316;18.908;2023-05-10T06:50:54;8.15;;;4.53;;
70707;SDS011;58277;47.316;18.908;2023-05-10T06:53:37;8.65;;;4.57;;
70707;SDS011;58277;47.316;18.908;2023-05-10T06:56:00;8.23;;;4.72;;
70707;SDS011;58277;47.316;18.908;2023-05-10T06:58:22;7.18;;;4.75;;
70707;SDS011;58277;47.316;18.908;2023-05-10T07:00:45;9.90;;;4.90;;
70707;SDS011;58277;47.316;18.908;2023-05-10T07:03:09;8.65;;;4.70;;
70707;SDS011;58277;47.316;18.908;2023-05-10T07:05:33;6.90;;;4.13;;
70707;SDS011;58277;47.316;18.908;2023-05-10T07:07:56;6.60;;;4.82;;
70707;SDS011;58277;47.316;18.908;2023-05-10T07:10:18;8.25;;;4.65;;
70707;SDS011;58277;47.316;18.908;2023-05-10T07:12:41;9.10;;;4.47;;
70707;SDS011;58277;47.316;18.908;2023-05-10T07:15:04;8.88;;;4.47;;
70707;SDS011;58277;47.316;18.908;2023-05-10T07:17:28;7.78;;;4.72;;
70707;SDS011;58277;47.316;18.908;2023-05-10T07:19:51;6.22;;;4.45;;
70707;SDS011;58277;47.316;18.908;2023-05-10T07:22:14;6.97;;;4.65;;
70707;SDS011;58277;47.316;18.908;2023-05-10T07:24:37;7.43;;;4.50;;
70707;SDS011;58277;47.316;18.908;2023-05-10T07:27:00;6.40;;;4.20;;
70707;SDS011;58277;47.316;18.908;2023-05-10T07:29:22;7.30;;;4.65;;
70707;SDS011;58277;47.316;18.908;2023-05-10T07:31:45;8.30;;;4.55;;
70707;SDS011;58277;47.316;18.908;2023-05-10T07:34:08;5.63;;;4.13;;
70707;SDS011;58277;47.316;18.908;2023-05-10T07:36:31;7.22;;;4.13;;
70707;SDS011;58277;47.316;18.908;2023-05-10T07:38:54;6.90;;;4.22;;
70707;SDS011;58277;47.316;18.908;2023-05-10T07:41:18;7.43;;;4.30;;
70707;SDS011;58277;47.316;18.908;2023-05-10T07:43:41;7.38;;;4.20;;
70707;SDS011;58277;47.316;18.908;2023-05-10T07:46:04;7.18;;;3.92;;
70707;SDS011;58277;47.316;18.908;2023-05-10T07:48:27;6.00;;;3.75;;
70707;SDS011;58277;47.316;18.908;2023-05-10T07:50:50;6.00;;;3.95;;
70707;SDS011;58277;47.316;18.908;2023-05-10T07:53:13;5.50;;;4.32;;
70707;SDS011;58277;47.316;18.908;2023-05-10T07:55:36;5.82;;;3.75;;
70707;SDS011;58277;47.316;18.908;2023-05-10T07:57:59;5.95;;;3.47;;
70707;SDS011;58277;47.316;18.908;2023-05-10T08:00:26;6.55;;;3.70;;
70707;SDS011;58277;47.316;18.908;2023-05-10T08:02:53;5.57;;;3.70;;
70707;SDS011;58277;47.316;18.908;2023-05-10T08:05:22;5.00;;;3.80;;
70707;SDS011;58277;47.316;18.908;2023-05-10T08:07:51;8.82;;;4.00;;
70707;SDS011;58277;47.316;18.908;2023-05-10T08:10:14;9.40;;;4.15;;
70707;SDS011;58277;47.316;18.908;2023-05-10T08:12:37;5.78;;;3.53;;
70707;SDS011;58277;47.316;18.908;2023-05-10T08:15:00;7.82;;;3.55;;
70707;SDS011;58277;47.316;18.908;2023-05-10T08:17:23;7.07;;;3.55;;
70707;SDS011;58277;47.316;18.908;2023-05-10T08:19:46;7.57;;;4.25;;
70707;SDS011;58277;47.316;18.908;2023-05-10T08:22:08;5.75;;;3.90;;
70707;SDS011;58277;47.316;18.908;2023-05-10T08:24:31;6.38;;;3.92;;
70707;SDS011;58277;47.316;18.908;2023-05-10T08:26:54;7.60;;;4.05;;
70707;SDS011;58277;47.316;18.908;2023-05-10T08:29:17;7.65;;;3.78;;
70707;SDS011;58277;47.316;18.908;2023-05-10T08:31:40;7.35;;;3.70;;
70707;SDS011;58277;47.316;18.908;2023-05-10T08:34:02;5.57;;;3.90;;
70707;SDS011;58277;47.316;18.908;2023-05-10T08:36:25;6.90;;;4.05;;
70707;SDS011;58277;47.316;18.908;2023-05-10T08:38:51;6.78;;;3.90;;
70707;SDS011;58277;47.316;18.908;2023-05-10T08:41:14;8.13;;;4.03;;
70707;SDS011;58277;47.316;18.908;2023-05-10T08:43:37;5.15;;;3.38;;
70707;SDS011;58277;47.316;18.908;2023-05-10T08:46:00;6.55;;;3.50;;
70707;SDS011;58277;47.316;18.908;2023-05-10T08:48:25;7.78;;;3.72;;
70707;SDS011;58277;47.316;18.908;2023-05-10T08:50:52;6.43;;;3.90;;
70707;SDS011;58277;47.316;18.908;2023-05-10T08:53:19;9.60;;;4.57;;
70707;SDS011;58277;47.316;18.908;2023-05-10T08:55:43;5.95;;;4.20;;
70707;SDS011;58277;47.316;18.908;2023-05-10T08:58:06;7.05;;;3.92;;
70707;SDS011;58277;47.316;18.908;2023-05-10T09:00:29;7.82;;;4.20;;
70707;SDS011;58277;47.316;18.908;2023-05-10T09:02:53;6.30;;;3.53;;
70707;SDS011;58277;47.316;18.908;2023-05-10T09:05:16;5.22;;;3.35;;
70707;SDS011;58277;47.316;18.908;2023-05-10T09:07:40;4.85;;;3.60;;
70707;SDS011;58277;47.316;18.908;2023-05-10T09:10:04;5.55;;;3.72;;
70707;SDS011;58277;47.316;18.908;2023-05-10T09:12:27;7.30;;;3.72;;
70707;SDS011;58277;47.316;18.908;2023-05-10T09:14:50;7.40;;;3.78;;
70707;SDS011;58277;47.316;18.908;2023-05-10T09:20:19;8.73;;;3.40;;
70707;SDS011;58277;47.316;18.908;2023-05-10T09:22:41;5.68;;;3.33;;
70707;SDS011;58277;47.316;18.908;2023-05-10T09:27:27;5.28;;;3.42;;
70707;SDS011;58277;47.316;18.908;2023-05-10T09:29:50;6.68;;;3.58;;
70707;SDS011;58277;47.316;18.908;2023-05-10T09:32:16;6.63;;;3.70;;
70707;SDS011;58277;47.316;18.908;2023-05-10T09:34:39;4.78;;;3.35;;
70707;SDS011;58277;47.316;18.908;2023-05-10T09:37:02;5.50;;;3.40;;
70707;SDS011;58277;47.316;18.908;2023-05-10T09:39:35;5.38;;;3.67;;
70707;SDS011;58277;47.316;18.908;2023-05-10T09:42:07;7.38;;;3.55;;
70707;SDS011;58277;47.316;18.908;2023-05-10T09:44:32;9.88;;;3.80;;
70707;SDS011;58277;47.316;18.908;2023-05-10T09:46:55;6.35;;;3.05;;
70707;SDS011;58277;47.316;18.908;2023-05-10T09:49:19;6.45;;;3.80;;
70707;SDS011;58277;47.316;18.908;2023-05-10T09:51:43;5.28;;;3.38;;
70707;SDS011;58277;47.316;18.908;2023-05-10T09:54:09;4.57;;;3.17;;
70707;SDS011;58277;47.316;18.908;2023-05-10T09:56:34;9.10;;;3.67;;
70707;SDS011;58277;47.316;18.908;2023-05-10T09:59:02;5.07;;;3.17;;
70707;SDS011;58277;47.316;18.908;2023-05-10T10:01:26;4.93;;;3.60;;
70707;SDS011;58277;47.316;18.908;2023-05-10T10:03:48;4.38;;;3.00;;
70707;SDS011;58277;47.316;18.908;2023-05-10T10:06:12;8.10;;;5.00;;
70707;SDS011;58277;47.316;18.908;2023-05-10T10:08:51;4.35;;;3.17;;
70707;SDS011;58277;47.316;18.908;2023-05-10T10:11:17;5.68;;;3.05;;
70707;SDS011;58277;47.316;18.908;2023-05-10T10:13:40;7.15;;;3.25;;
70707;SDS011;58277;47.316;18.908;2023-05-10T10:16:03;5.10;;;3.05;;
70707;SDS011;58277;47.316;18.908;2023-05-10T10:18:26;4.78;;;3.13;;
70707;SDS011;58277;47.316;18.908;2023-05-10T10:20:50;6.28;;;2.95;;
70707;SDS011;58277;47.316;18.908;2023-05-10T10:23:14;8.10;;;3.08;;
70707;SDS011;58277;47.316;18.908;2023-05-10T10:25:38;5.78;;;3.05;;
70707;SDS011;58277;47.316;18.908;2023-05-10T10:28:11;4.55;;;3.17;;
70707;SDS011;58277;47.316;18.908;2023-05-10T10:30:49;3.83;;;3.00;;
70707;SDS011;58277;47.316;18.908;2023-05-10T10:35:49;6.28;;;3.00;;
70707;SDS011;58277;47.316;18.908;2023-05-10T10:38:14;5.40;;;3.30;;
70707;SDS011;58277;47.316;18.908;2023-05-10T10:40:37;5.85;;;3.00;;
70707;SDS011;58277;47.316;18.908;2023-05-10T10:45:48;4.68;;;2.83;;
70707;SDS011;58277;47.316;18.908;2023-05-10T10:48:36;8.32;;;3.03;;
70707;SDS011;58277;47.316;18.908;2023-05-10T10:50:59;3.50;;;2.72;;
70707;SDS011;58277;47.316;18.908;2023-05-10T10:53:25;4.28;;;2.90;;
70707;SDS011;58277;47.316;18.908;2023-05-10T10:55:51;4.45;;;3.00;;
70707;SDS011;58277;47.316;18.908;2023-05-10T10:58:28;6.07;;;3.00;;
70707;SDS011;58277;47.316;18.908;2023-05-10T11:01:08;4.57;;;2.70;;
70707;SDS011;58277;47.316;18.908;2023-05-10T11:03:32;3.67;;;2.60;;
70707;SDS011;58277;47.316;18.908;2023-05-10T11:05:57;3.60;;;2.80;;
70707;SDS011;58277;47.316;18.908;2023-05-10T11:08:28;4.03;;;2.80;;
70707;SDS011;58277;47.316;18.908;2023-05-10T11:15:54;4.75;;;2.50;;
70707;SDS011;58277;47.316;18.908;2023-05-10T11:20:59;3.85;;;2.60;;
70707;SDS011;58277;47.316;18.908;2023-05-10T11:25:53;4.03;;;2.22;;
70707;SDS011;58277;47.316;18.908;2023-05-10T11:28:17;3.10;;;2.42;;
70707;SDS011;58277;47.316;18.908;2023-05-10T11:30:43;4.35;;;2.67;;
70707;SDS011;58277;47.316;18.908;2023-05-10T11:33:07;5.57;;;2.35;;
70707;SDS011;58277;47.316;18.908;2023-05-10T11:35:31;3.67;;;2.53;;
70707;SDS011;58277;47.316;18.908;2023-05-10T11:38:05;8.90;;;2.33;;
70707;SDS011;58277;47.316;18.908;2023-05-10T11:40:28;5.55;;;2.40;;
70707;SDS011;58277;47.316;18.908;2023-05-10T11:42:51;4.13;;;2.20;;
70707;SDS011;58277;47.316;18.908;2023-05-10T11:45:14;3.38;;;2.38;;
70707;SDS011;58277;47.316;18.908;2023-05-10T11:47:38;5.93;;;2.30;;
70707;SDS011;58277;47.316;18.908;2023-05-10T11:50:04;3.15;;;2.10;;
70707;SDS011;58277;47.316;18.908;2023-05-10T11:52:28;3.72;;;2.65;;
70707;SDS011;58277;47.316;18.908;2023-05-10T11:54:52;3.35;;;2.10;;
70707;SDS011;58277;47.316;18.908;2023-05-10T11:57:15;5.63;;;2.70;;
70707;SDS011;58277;47.316;18.908;2023-05-10T11:59:38;3.80;;;2.25;;
70707;SDS011;58277;47.316;18.908;2023-05-10T12:02:04;6.05;;;2.28;;
70707;SDS011;58277;47.316;18.908;2023-05-10T12:04:27;6.55;;;2.30;;
70707;SDS011;58277;47.316;18.908;2023-05-10T12:06:51;3.42;;;2.25;;
70707;SDS011;58277;47.316;18.908;2023-05-10T12:09:14;3.00;;;2.40;;
70707;SDS011;58277;47.316;18.908;2023-05-10T12:11:40;3.08;;;2.13;;
70707;SDS011;58277;47.316;18.908;2023-05-10T12:14:05;5.07;;;2.30;;
70707;SDS011;58277;47.316;18.908;2023-05-10T12:16:29;5.32;;;2.30;;
70707;SDS011;58277;47.316;18.908;2023-05-10T12:18:53;3.75;;;2.30;;
70707;SDS011;58277;47.316;18.908;2023-05-10T12:21:18;3.03;;;1.90;;
70707;SDS011;58277;47.316;18.908;2023-05-10T12:23:42;3.65;;;2.22;;
70707;SDS011;58277;47.316;18.908;2023-05-10T12:26:08;4.93;;;2.35;;
70707;SDS011;58277;47.316;18.908;2023-05-10T12:28:32;3.35;;;2.40;;
70707;SDS011;58277;47.316;18.908;2023-05-10T12:30:56;3.17;;;2.15;;
70707;SDS011;58277;47.316;18.908;2023-05-10T12:33:20;3.78;;;2.30;;
70707;SDS011;58277;47.316;18.908;2023-05-10T12:35:43;6.40;;;4.10;;
70707;SDS011;58277;47.316;18.908;2023-05-10T12:38:26;5.40;;;2.47;;
70707;SDS011;58277;47.316;18.908;2023-05-10T12:40:51;4.75;;;2.33;;
70707;SDS011;58277;47.316;18.908;2023-05-10T12:43:14;5.40;;;2.70;;
70707;SDS011;58277;47.316;18.908;2023-05-10T12:45:37;4.18;;;2.33;;
70707;SDS011;58277;47.316;18.908;2023-05-10T12:48:00;3.40;;;2.30;;
70707;SDS011;58277;47.316;18.908;2023-05-10T12:50:22;3.90;;;2.50;;
70707;SDS011;58277;47.316;18.908;2023-05-10T12:52:46;3.45;;;2.35;;
70707;SDS011;58277;47.316;18.908;2023-05-10T12:55:09;3.10;;;2.17;;
70707;SDS011;58277;47.316;18.908;2023-05-10T12:57:32;4.47;;;2.72;;
70707;SDS011;58277;47.316;18.908;2023-05-10T12:59:55;3.60;;;2.13;;
70707;SDS011;58277;47.316;18.908;2023-05-10T13:02:17;2.58;;;2.03;;
70707;SDS011;58277;47.316;18.908;2023-05-10T13:04:40;3.55;;;2.10;;
70707;SDS011;58277;47.316;18.908;2023-05-10T13:07:04;3.08;;;2.17;;
70707;SDS011;58277;47.316;18.908;2023-05-10T13:09:27;5.63;;;2.20;;
70707;SDS011;58277;47.316;18.908;2023-05-10T13:11:53;4.00;;;2.30;;
70707;SDS011;58277;47.316;18.908;2023-05-10T13:14:16;4.22;;;2.10;;
70707;SDS011;58277;47.316;18.908;2023-05-10T13:16:39;4.63;;;2.30;;
70707;SDS011;58277;47.316;18.908;2023-05-10T13:19:01;2.65;;;2.00;;
70707;SDS011;58277;47.316;18.908;2023-05-10T13:21:25;3.80;;;2.25;;
70707;SDS011;58277;47.316;18.908;2023-05-10T13:23:48;3.95;;;2.20;;
70707;SDS011;58277;47.316;18.908;2023-05-10T13:26:11;3.03;;;2.38;;
70707;SDS011;58277;47.316;18.908;2023-05-10T13:28:33;3.13;;;2.00;;
70707;SDS011;58277;47.316;18.908;2023-05-10T13:30:56;6.45;;;2.65;;
70707;SDS011;58277;47.316;18.908;2023-05-10T13:33:19;3.65;;;2.15;;
70707;SDS011;58277;47.316;18.908;2023-05-10T13:35:42;4.25;;;2.22;;
70707;SDS011;58277;47.316;18.908;2023-05-10T13:38:04;5.43;;;2.20;;
70707;SDS011;58277;47.316;18.908;2023-05-10T13:40:30;2.67;;;2.10;;
70707;SDS011;58277;47.316;18.908;2023-05-10T13:42:53;4.97;;;2.40;;
70707;SDS011;58277;47.316;18.908;2023-05-10T13:45:15;3.75;;;2.40;;
70707;SDS011;58277;47.316;18.908;2023-05-10T13:47:39;7.28;;;2.42;;
70707;SDS011;58277;47.316;18.908;2023-05-10T13:50:01;3.78;;;2.60;;
70707;SDS011;58277;47.316;18.908;2023-05-10T13:52:26;3.85;;;2.65;;
70707;SDS011;58277;47.316;18.908;2023-05-10T13:54:48;4.40;;;2.70;;
70707;SDS011;58277;47.316;18.908;2023-05-10T13:57:12;4.80;;;2.85;;
70707;SDS011;58277;47.316;18.908;2023-05-10T13:59:36;6.05;;;2.65;;
70707;SDS011;58277;47.316;18.908;2023-05-10T14:01:59;3.92;;;2.70;;
70707;SDS011;58277;47.316;18.908;2023-05-10T14:04:24;4.57;;;2.13;;
70707;SDS011;58277;47.316;18.908;2023-05-10T14:06:47;3.65;;;2.60;;
70707;SDS011;58277;47.316;18.908;2023-05-10T14:09:10;4.28;;;2.40;;
70707;SDS011;58277;47.316;18.908;2023-05-10T14:11:32;4.55;;;2.35;;
70707;SDS011;58277;47.316;18.908;2023-05-10T14:13:55;4.60;;;2.70;;
70707;SDS011;58277;47.316;18.908;2023-05-10T14:16:18;3.30;;;2.25;;
70707;SDS011;58277;47.316;18.908;2023-05-10T14:18:42;4.20;;;2.28;;
70707;SDS011;58277;47.316;18.908;2023-05-10T14:21:04;3.28;;;2.42;;
70707;SDS011;58277;47.316;18.908;2023-05-10T14:23:27;2.72;;;2.15;;
70707;SDS011;58277;47.316;18.908;2023-05-10T14:25:53;3.70;;;2.15;;
70707;SDS011;58277;47.316;18.908;2023-05-10T14:28:16;4.80;;;2.03;;
70707;SDS011;58277;47.316;18.908;2023-05-10T14:30:40;2.47;;;1.98;;
70707;SDS011;58277;47.316;18.908;2023-05-10T14:33:03;5.35;;;2.13;;
70707;SDS011;58277;47.316;18.908;2023-05-10T14:35:44;4.90;;;2.13;;
70707;SDS011;58277;47.316;18.908;2023-05-10T14:38:07;5.03;;;2.28;;
70707;SDS011;58277;47.316;18.908;2023-05-10T14:40:32;3.75;;;2.33;;
70707;SDS011;58277;47.316;18.908;2023-05-10T14:42:55;3.20;;;2.00;;
70707;SDS011;58277;47.316;18.908;2023-05-10T14:45:18;3.70;;;1.92;;
70707;SDS011;58277;47.316;18.908;2023-05-10T14:47:41;4.15;;;2.00;;
70707;SDS011;58277;47.316;18.908;2023-05-10T14:50:04;4.25;;;2.03;;